createdAt,value
2018-08-22T00:01:51.877Z,17.80
2018-08-22T00:04:20.452Z,17.80
2018-08-22T00:06:48.853Z,17.80
2018-08-22T00:09:17.216Z,17.70
2018-08-22T00:11:45.855Z,17.60
2018-08-22T00:14:14.247Z,17.60
2018-08-22T00:16:42.572Z,17.70
2018-08-22T00:19:11.145Z,17.60
2018-08-22T00:21:39.531Z,17.50
2018-08-22T00:24:07.890Z,17.50
2018-08-22T00:26:36.956Z,17.50
2018-08-22T00:29:05.987Z,17.40
2018-08-22T00:31:34.306Z,17.50
2018-08-22T00:34:02.857Z,17.40
2018-08-22T00:36:31.250Z,17.40
2018-08-22T00:38:59.625Z,17.40
2018-08-22T00:41:28.261Z,17.40
2018-08-22T00:43:56.604Z,17.30
2018-08-22T00:46:25.048Z,17.30
2018-08-22T00:48:53.664Z,17.30
2018-08-22T00:51:22.029Z,17.30
2018-08-22T00:53:50.396Z,17.30
2018-08-22T00:56:18.964Z,17.20
2018-08-22T00:58:47.319Z,17.20
2018-08-22T01:01:15.673Z,17.20
2018-08-22T01:03:44.201Z,17.10
2018-08-22T01:06:12.572Z,17.10
2018-08-22T01:08:40.925Z,17.10
2018-08-22T01:11:09.362Z,17.00
2018-08-22T01:13:37.707Z,17.00
2018-08-22T01:16:06.380Z,17.00
2018-08-22T01:18:34.751Z,16.90
2018-08-22T01:21:03.160Z,16.90
2018-08-22T01:23:31.626Z,16.90
2018-08-22T01:26:00.173Z,16.90
2018-08-22T01:28:28.537Z,16.90
2018-08-22T01:30:56.916Z,16.90
2018-08-22T01:33:25.637Z,16.90
2018-08-22T01:35:53.989Z,16.80
2018-08-22T01:38:22.358Z,16.80
2018-08-22T01:40:50.834Z,16.80
2018-08-22T01:43:19.445Z,16.70
2018-08-22T01:45:47.882Z,16.70
2018-08-22T01:48:16.237Z,16.70
2018-08-22T01:50:44.872Z,16.70
2018-08-22T01:53:13.240Z,16.60
2018-08-22T01:55:41.604Z,16.50
2018-08-22T01:58:10.196Z,16.50
2018-08-22T02:00:38.561Z,16.40
2018-08-22T02:03:06.901Z,16.40
2018-08-22T02:05:36.415Z,16.40
2018-08-22T02:08:04.904Z,16.40
2018-08-22T02:10:33.284Z,16.40
2018-08-22T02:13:01.829Z,16.40
2018-08-22T02:15:30.249Z,16.40
2018-08-22T02:17:58.670Z,16.40
2018-08-22T02:20:27.340Z,16.30
2018-08-22T02:22:55.736Z,16.30
2018-08-22T02:25:24.185Z,16.30
2018-08-22T02:27:52.768Z,16.30
2018-08-22T02:30:21.129Z,16.20
2018-08-22T02:32:49.560Z,16.30
2018-08-22T02:35:18.289Z,16.20
2018-08-22T02:37:46.654Z,16.20
2018-08-22T02:40:15.021Z,16.20
2018-08-22T02:42:43.701Z,16.10
2018-08-22T02:45:12.041Z,16.10
2018-08-22T02:47:40.497Z,16.20
2018-08-22T02:50:09.085Z,16.10
2018-08-22T02:52:37.434Z,16.10
2018-08-22T02:55:06.334Z,16.10
2018-08-22T02:57:34.961Z,16.10
2018-08-22T03:00:03.401Z,16.10
2018-08-22T03:02:31.786Z,16.00
2018-08-22T03:05:00.456Z,16.00
2018-08-22T03:07:28.854Z,16.10
2018-08-22T03:09:57.237Z,16.00
2018-08-22T03:12:25.757Z,16.00
2018-08-22T03:14:54.187Z,16.00
2018-08-22T03:17:22.817Z,16.00
2018-08-22T03:19:51.204Z,16.00
2018-08-22T03:22:19.669Z,15.90
2018-08-22T03:24:48.125Z,15.90
2018-08-22T03:27:16.741Z,15.90
2018-08-22T03:29:45.160Z,15.90
2018-08-22T03:32:13.525Z,15.90
2018-08-22T03:34:42.121Z,15.90
2018-08-22T03:37:10.526Z,15.80
2018-08-22T03:39:38.980Z,15.80
2018-08-22T03:42:07.745Z,15.80
2018-08-22T03:44:36.855Z,15.80
2018-08-22T03:47:05.253Z,15.70
2018-08-22T03:49:33.684Z,15.70
2018-08-22T03:52:02.155Z,15.70
2018-08-22T03:54:30.517Z,15.70
2018-08-22T03:56:59.130Z,15.70
2018-08-22T03:59:27.582Z,15.70
2018-08-22T04:01:56.005Z,15.70
2018-08-22T04:04:24.677Z,15.70
2018-08-22T04:06:53.049Z,15.70
2018-08-22T04:09:21.413Z,15.70
2018-08-22T04:11:49.849Z,15.60
2018-08-22T04:14:18.402Z,15.60
2018-08-22T04:16:46.803Z,15.60
2018-08-22T04:19:15.176Z,15.60
2018-08-22T04:21:43.833Z,15.60
2018-08-22T04:24:12.205Z,15.60
2018-08-22T04:26:40.616Z,15.60
2018-08-22T04:29:09.022Z,15.60
2018-08-22T04:31:37.475Z,15.70
2018-08-22T04:34:06.046Z,15.70
2018-08-22T04:36:34.413Z,15.70
2018-08-22T04:39:03.017Z,15.80
2018-08-22T04:41:31.440Z,15.70
2018-08-22T04:43:59.837Z,15.70
2018-08-22T04:46:28.486Z,15.70
2018-08-22T04:48:56.977Z,15.70
2018-08-22T04:51:25.372Z,15.80
2018-08-22T04:53:53.758Z,15.80
2018-08-22T04:56:22.133Z,15.80
2018-08-22T04:58:50.817Z,16.10
2018-08-22T05:01:19.357Z,16.70
2018-08-22T05:03:47.749Z,17.30
2018-08-22T05:06:16.259Z,17.60
2018-08-22T05:08:44.617Z,18.10
2018-08-22T05:11:12.973Z,18.60
2018-08-22T05:13:41.640Z,18.80
2018-08-22T05:16:10.014Z,19.20
2018-08-22T05:18:38.372Z,19.60
2018-08-22T05:21:07.397Z,20.20
2018-08-22T05:23:35.769Z,20.40
2018-08-22T05:26:04.143Z,20.40
2018-08-22T05:28:32.697Z,20.80
2018-08-22T05:31:01.177Z,21.20
2018-08-22T05:33:29.527Z,21.40
2018-08-22T05:35:58.061Z,21.70
2018-08-22T05:38:26.435Z,21.70
2018-08-22T05:40:54.805Z,21.90
2018-08-22T05:43:23.230Z,22.30
2018-08-22T05:45:51.697Z,22.50
2018-08-22T05:48:20.058Z,22.80
2018-08-22T05:50:48.586Z,23.00
2018-08-22T05:53:16.937Z,23.20
2018-08-22T05:55:45.366Z,23.20
2018-08-22T05:58:14.013Z,23.40
2018-08-22T06:00:42.385Z,24.10
2018-08-22T06:03:10.760Z,24.50
2018-08-22T06:05:39.161Z,24.50
2018-08-22T06:08:07.530Z,24.60
2018-08-22T06:10:36.116Z,24.90
2018-08-22T06:13:04.464Z,25.50
2018-08-22T06:15:32.924Z,25.60
2018-08-22T06:18:01.542Z,26.00
2018-08-22T06:20:29.929Z,25.50
2018-08-22T06:22:58.291Z,25.30
2018-08-22T06:25:26.719Z,25.50
2018-08-22T06:27:55.133Z,25.10
2018-08-22T06:30:23.493Z,25.40
2018-08-22T06:32:51.938Z,25.90
2018-08-22T06:35:20.531Z,26.30
2018-08-22T06:37:48.900Z,26.90
2018-08-22T06:40:17.310Z,27.80
2018-08-22T06:42:45.849Z,27.50
2018-08-22T06:45:14.217Z,27.10
2018-08-22T06:47:42.590Z,27.00
2018-08-22T06:50:11.079Z,27.50
2018-08-22T06:52:39.538Z,27.10
2018-08-22T06:55:07.958Z,27.00
2018-08-22T06:57:36.325Z,26.50
2018-08-22T07:00:05.725Z,26.40
2018-08-22T07:02:34.293Z,26.20
2018-08-22T07:05:02.778Z,26.10
2018-08-22T07:07:31.134Z,26.00
2018-08-22T07:09:59.536Z,25.80
2018-08-22T07:12:27.925Z,25.50
2018-08-22T07:14:56.589Z,25.50
2018-08-22T07:17:24.953Z,25.60
2018-08-22T07:19:53.300Z,25.50
2018-08-22T07:22:21.924Z,25.10
2018-08-22T07:24:50.308Z,24.90
2018-08-22T07:27:18.692Z,24.70
2018-08-22T07:29:47.116Z,24.80
2018-08-22T07:32:15.466Z,24.60
2018-08-22T07:34:43.913Z,24.50
2018-08-22T07:37:12.401Z,24.60
2018-08-22T07:39:40.854Z,24.60
2018-08-22T07:42:09.438Z,24.70
2018-08-22T07:44:38.068Z,24.60
2018-08-22T07:47:06.448Z,24.50
2018-08-22T07:49:35.047Z,24.50
2018-08-22T07:52:03.506Z,24.60
2018-08-22T07:54:37.169Z,24.60
2018-08-22T07:57:05.540Z,24.70
2018-08-22T07:59:33.913Z,24.80
2018-08-22T08:02:02.625Z,24.60
2018-08-22T08:04:30.906Z,24.80
2018-08-22T08:06:59.255Z,24.90
2018-08-22T08:09:27.865Z,25.20
2018-08-22T08:11:56.234Z,25.40
2018-08-22T08:14:24.653Z,25.50
2018-08-22T08:16:53.090Z,25.40
2018-08-22T08:19:21.669Z,25.40
2018-08-22T08:21:51.208Z,25.60
2018-08-22T08:24:19.669Z,25.80
2018-08-22T08:26:48.239Z,26.00
2018-08-22T08:29:16.686Z,26.10
2018-08-22T08:31:45.129Z,26.20
2018-08-22T08:34:13.721Z,26.20
2018-08-22T08:36:42.121Z,26.10
2018-08-22T08:39:11.474Z,26.10
2018-08-22T08:41:40.119Z,26.20
2018-08-22T08:44:08.482Z,26.20
2018-08-22T08:46:36.908Z,26.10
2018-08-22T08:49:05.441Z,26.20
2018-08-22T08:51:34.180Z,26.40
2018-08-22T08:54:02.523Z,26.70
2018-08-22T08:56:31.057Z,26.90
2018-08-22T08:58:59.409Z,26.70
2018-08-22T09:01:27.789Z,26.80
2018-08-22T09:03:56.468Z,27.00
2018-08-22T09:06:24.798Z,27.20
2018-08-22T09:08:53.192Z,27.10
2018-08-22T09:11:21.633Z,27.20
2018-08-22T09:13:55.229Z,27.30
2018-08-22T09:16:23.642Z,27.30
2018-08-22T09:18:52.069Z,27.30
2018-08-22T09:21:20.531Z,27.20
2018-08-22T09:23:49.022Z,27.20
2018-08-22T09:26:17.500Z,27.50
2018-08-22T09:28:46.193Z,27.60
2018-08-22T09:31:14.609Z,27.70
2018-08-22T09:33:43.144Z,27.70
2018-08-22T09:36:11.464Z,27.90
2018-08-22T09:38:41.025Z,27.80
2018-08-22T09:41:09.430Z,27.90
2018-08-22T09:43:37.786Z,27.90
2018-08-22T09:46:06.195Z,27.90
2018-08-22T09:48:34.716Z,28.00
2018-08-22T09:51:03.170Z,27.90
2018-08-22T09:53:31.505Z,27.80
2018-08-22T09:55:59.893Z,27.90
2018-08-22T09:58:28.534Z,28.10
2018-08-22T10:02:04.190Z,28.30
2018-08-22T10:04:32.568Z,28.40
2018-08-22T10:07:00.970Z,28.20
2018-08-22T10:09:29.375Z,28.20
2018-08-22T10:11:57.729Z,28.40
2018-08-22T10:14:26.102Z,28.20
2018-08-22T10:16:54.523Z,28.00
2018-08-22T10:19:23.062Z,27.70
2018-08-22T10:21:51.478Z,27.60
2018-08-22T10:24:19.873Z,27.60
2018-08-22T10:26:48.336Z,27.70
2018-08-22T10:29:16.963Z,28.00
2018-08-22T10:31:45.601Z,28.10
2018-08-22T10:34:14.702Z,28.20
2018-08-22T10:36:43.132Z,28.30
2018-08-22T10:39:11.653Z,28.20
2018-08-22T10:41:40.017Z,28.10
2018-08-22T10:44:08.437Z,28.20
2018-08-22T10:46:36.812Z,28.10
2018-08-22T10:49:05.357Z,28.20
2018-08-22T10:51:33.814Z,28.30
2018-08-22T10:54:02.206Z,28.40
2018-08-22T10:56:30.585Z,28.40
2018-08-22T10:58:59.044Z,28.40
2018-08-22T11:01:27.469Z,28.50
2018-08-22T11:03:55.902Z,28.50
2018-08-22T11:06:24.319Z,28.40
2018-08-22T11:08:52.754Z,28.40
2018-08-22T11:11:21.148Z,28.30
2018-08-22T11:13:49.527Z,28.40
2018-08-22T11:16:17.916Z,28.40
2018-08-22T11:18:46.290Z,28.60
2018-08-22T11:21:26.236Z,28.70
2018-08-22T11:24:05.796Z,28.70
2018-08-22T11:26:45.676Z,28.40
2018-08-22T11:29:26.110Z,28.30
2018-08-22T11:32:06.053Z,28.40
2018-08-22T11:34:45.990Z,28.30
2018-08-22T11:37:15.661Z,28.10
2018-08-22T11:39:45.550Z,28.00
2018-08-22T11:42:13.977Z,27.90
2018-08-22T11:44:42.445Z,28.00
2018-08-22T11:47:11.772Z,28.10
2018-08-22T11:49:40.213Z,28.20
2018-08-22T11:52:09.478Z,28.20
2018-08-22T11:54:38.057Z,28.10
2018-08-22T11:57:06.445Z,28.20
2018-08-22T11:59:34.797Z,28.30
2018-08-22T12:02:03.298Z,28.30
2018-08-22T12:04:31.876Z,28.30
2018-08-22T12:07:00.217Z,28.20
2018-08-22T12:09:28.588Z,28.20
2018-08-22T12:11:57.549Z,28.20
2018-08-22T12:14:26.118Z,28.10
2018-08-22T12:16:54.507Z,27.90
2018-08-22T12:19:22.918Z,27.90
2018-08-22T12:21:51.536Z,27.90
2018-08-22T12:24:20.222Z,27.90
2018-08-22T12:26:48.605Z,27.80
2018-08-22T12:29:17.026Z,27.80
2018-08-22T12:31:45.413Z,27.90
2018-08-22T12:34:13.797Z,28.00
2018-08-22T12:36:42.197Z,28.10
2018-08-22T12:39:10.964Z,28.00
2018-08-22T12:41:39.337Z,28.10
2018-08-22T12:44:07.741Z,28.10
2018-08-22T12:46:36.157Z,28.10
2018-08-22T12:49:04.580Z,28.10
2018-08-22T12:51:32.939Z,28.10
2018-08-22T12:54:01.372Z,28.10
2018-08-22T12:56:29.753Z,28.10
2018-08-22T12:58:58.293Z,28.20
2018-08-22T13:01:26.733Z,28.20
2018-08-22T13:03:55.133Z,28.20
2018-08-22T13:06:23.809Z,28.20
2018-08-22T13:08:52.633Z,28.30
2018-08-22T13:11:21.108Z,28.40
2018-08-22T13:13:49.689Z,28.40
2018-08-22T13:16:18.038Z,28.40
2018-08-22T13:18:46.599Z,28.30
2018-08-22T13:21:15.010Z,28.30
2018-08-22T13:23:43.389Z,28.40
2018-08-22T13:26:12.408Z,28.30
2018-08-22T13:28:40.873Z,28.30
2018-08-22T13:31:09.434Z,28.20
2018-08-22T13:33:38.089Z,28.20
2018-08-22T13:36:06.415Z,28.20
2018-08-22T13:38:34.786Z,28.30
2018-08-22T13:41:03.263Z,28.30
2018-08-22T13:43:31.657Z,28.30
2018-08-22T13:46:00.120Z,28.40
2018-08-22T13:48:28.764Z,28.40
2018-08-22T13:50:57.201Z,28.40
2018-08-22T13:53:25.530Z,28.50
2018-08-22T13:55:54.040Z,28.60
2018-08-22T13:58:22.514Z,28.60
2018-08-22T14:00:51.729Z,28.60
2018-08-22T14:03:20.384Z,28.60
2018-08-22T14:05:48.737Z,28.60
2018-08-22T14:08:17.113Z,28.70
2018-08-22T14:10:45.517Z,28.80
2018-08-22T14:13:14.029Z,28.90
2018-08-22T14:15:42.902Z,29.00
2018-08-22T14:18:11.301Z,29.10
2018-08-22T14:20:39.818Z,29.20
2018-08-22T14:23:08.975Z,29.20
2018-08-22T14:25:37.356Z,29.20
2018-08-22T14:28:05.874Z,29.30
2018-08-22T14:30:34.506Z,29.30
2018-08-22T14:33:03.002Z,29.30
2018-08-22T14:35:31.777Z,29.30
2018-08-22T14:38:00.522Z,29.30
2018-08-22T14:40:29.046Z,29.30
2018-08-22T14:42:57.555Z,29.40
2018-08-22T14:45:26.212Z,29.40
2018-08-22T14:47:54.613Z,29.40
2018-08-22T14:50:22.985Z,29.50
2018-08-22T14:52:51.793Z,29.50
2018-08-22T14:55:20.254Z,29.50
2018-08-22T14:57:48.659Z,29.40
2018-08-22T15:00:17.301Z,29.40
2018-08-22T15:02:45.855Z,29.30
2018-08-22T15:05:14.477Z,29.30
2018-08-22T15:12:39.796Z,29.10
2018-08-22T15:15:08.399Z,29.20
2018-08-22T15:17:36.859Z,29.20
2018-08-22T15:20:05.658Z,29.20
2018-08-22T15:22:34.097Z,29.10
2018-08-22T15:25:02.595Z,29.20
2018-08-22T15:27:31.007Z,29.10
2018-08-22T15:29:59.491Z,29.00
2018-08-22T15:32:27.869Z,29.00
2018-08-22T15:34:57.433Z,28.90
2018-08-22T15:37:26.293Z,28.90
2018-08-22T15:39:54.657Z,28.80
2018-08-22T15:42:23.537Z,28.80
2018-08-22T15:44:51.910Z,28.80
2018-08-22T15:47:20.518Z,28.80
2018-08-22T15:49:49.009Z,28.70
2018-08-22T15:52:17.467Z,28.60
2018-08-22T15:55:01.561Z,28.50
2018-08-22T15:57:44.193Z,28.50
2018-08-22T16:00:15.168Z,28.50
2018-08-22T16:02:43.581Z,28.50
2018-08-22T16:05:12.154Z,28.50
2018-08-22T16:07:40.541Z,28.40
2018-08-22T16:10:09.026Z,28.40
2018-08-22T16:12:37.432Z,28.40
2018-08-22T16:15:05.945Z,28.50
2018-08-22T16:17:34.505Z,28.50
2018-08-22T16:20:02.888Z,28.50
2018-08-22T16:22:31.267Z,28.50
2018-08-22T16:24:59.708Z,28.40
2018-08-22T16:27:28.169Z,28.40
2018-08-22T16:29:56.730Z,28.40
2018-08-22T16:32:25.834Z,28.40
2018-08-22T16:34:54.218Z,28.30
2018-08-22T16:37:22.741Z,28.30
2018-08-22T16:39:51.342Z,28.20
2018-08-22T16:42:23.987Z,28.20
2018-08-22T16:44:52.405Z,28.10
2018-08-22T16:47:25.113Z,28.10
2018-08-22T16:49:53.489Z,28.00
2018-08-22T16:52:21.937Z,27.90
2018-08-22T16:54:59.286Z,27.90
2018-08-22T16:57:27.734Z,27.90
2018-08-22T16:59:56.142Z,27.90
2018-08-22T17:02:24.525Z,27.90
2018-08-22T17:04:53.107Z,27.90
2018-08-22T17:07:21.530Z,27.80
2018-08-22T17:09:50.387Z,27.80
2018-08-22T17:12:19.002Z,27.70
2018-08-22T17:14:47.409Z,27.70
2018-08-22T17:17:15.990Z,27.70
2018-08-22T17:19:44.397Z,27.60
2018-08-22T17:22:13.681Z,27.50
2018-08-22T17:24:42.085Z,27.40
2018-08-22T17:27:10.625Z,27.40
2018-08-22T17:29:39.061Z,27.30
2018-08-22T17:32:07.564Z,27.20
2018-08-22T17:34:36.293Z,27.20
2018-08-22T17:37:06.597Z,27.10
2018-08-22T17:39:34.995Z,27.00
2018-08-22T17:42:03.411Z,27.00
2018-08-22T17:44:32.020Z,27.00
2018-08-22T17:47:00.409Z,26.90
2018-08-22T17:49:28.807Z,26.90
2018-08-22T17:52:01.035Z,26.80
2018-08-22T17:54:29.418Z,26.80
2018-08-22T17:57:10.352Z,26.70
2018-08-22T17:59:39.478Z,26.70
2018-08-22T18:02:07.926Z,26.60
2018-08-22T18:04:47.758Z,26.50
2018-08-22T18:07:16.821Z,26.40
2018-08-22T18:09:46.402Z,26.30
2018-08-22T18:12:15.081Z,26.20
2018-08-22T18:14:44.236Z,26.10
2018-08-22T18:17:12.638Z,26.00
2018-08-22T18:19:41.308Z,25.90
2018-08-22T18:22:10.577Z,25.90
2018-08-22T18:24:47.355Z,25.80
2018-08-22T18:27:16.425Z,25.70
2018-08-22T18:29:46.204Z,25.60
2018-08-22T18:32:15.685Z,25.50
2018-08-22T18:34:57.887Z,25.40
2018-08-22T18:37:28.090Z,25.50
2018-08-22T18:40:25.320Z,25.40
2018-08-22T18:42:55.997Z,25.40
2018-08-22T18:45:25.666Z,25.30
2018-08-22T18:47:54.277Z,25.20
2018-08-22T18:50:23.024Z,25.10
2018-08-22T18:52:53.384Z,25.10
2018-08-22T18:55:23.712Z,25.00
2018-08-22T18:57:53.026Z,25.00
2018-08-22T19:00:21.420Z,25.00
2018-08-22T19:02:51.405Z,25.00
2018-08-22T19:05:28.183Z,25.00
2018-08-22T19:08:03.437Z,25.00
2018-08-22T19:10:33.317Z,24.90
2018-08-22T19:13:34.650Z,24.90
2018-08-22T19:16:10.260Z,24.90
2018-08-22T19:18:39.197Z,24.80
2018-08-22T19:21:09.386Z,24.80
2018-08-22T19:23:37.794Z,24.70
2018-08-22T19:26:07.182Z,24.60
2018-08-22T19:28:52.401Z,24.50
2018-08-22T19:31:20.822Z,24.50
2018-08-22T19:33:49.241Z,24.40
2018-08-22T19:36:17.669Z,25.20
2018-08-22T19:38:46.274Z,24.30
2018-08-22T19:41:22.658Z,24.30
2018-08-22T19:43:51.106Z,24.30
2018-08-22T19:46:19.630Z,24.30
2018-08-22T19:48:48.127Z,24.30
2018-08-22T19:51:16.853Z,24.30
2018-08-22T19:53:56.461Z,24.30
2018-08-22T19:56:25.235Z,24.30
2018-08-22T19:58:53.713Z,24.30
2018-08-22T20:01:22.353Z,24.20
2018-08-22T20:03:53.928Z,24.20
2018-08-22T20:06:22.733Z,24.20
2018-08-22T20:08:53.775Z,24.10
2018-08-22T20:11:22.729Z,24.10
2018-08-22T20:13:53.803Z,24.10
2018-08-22T20:16:22.979Z,24.00
2018-08-22T20:18:57.109Z,24.00
2018-08-22T20:21:30.782Z,24.00
2018-08-22T20:23:59.818Z,23.90
2018-08-22T20:26:28.733Z,23.90
2018-08-22T20:28:58.402Z,23.90
2018-08-22T20:31:26.894Z,23.80
2018-08-22T20:34:04.190Z,23.80
2018-08-22T20:36:32.762Z,23.80
2018-08-22T20:39:05.615Z,23.70
2018-08-22T20:41:34.265Z,23.70
2018-08-22T20:44:03.183Z,23.70
2018-08-22T20:46:31.549Z,23.60
2018-08-22T20:49:00.170Z,23.60
2018-08-22T20:51:30.018Z,23.50
2018-08-22T20:54:03.994Z,23.50
2018-08-22T20:56:32.369Z,23.40
2018-08-22T20:59:00.817Z,23.40
2018-08-22T21:01:29.401Z,23.40
2018-08-22T21:03:57.796Z,23.40
2018-08-22T21:06:26.207Z,23.40
2018-08-22T21:08:54.785Z,23.30
2018-08-22T21:11:23.184Z,23.30
2018-08-22T21:13:51.658Z,23.20
2018-08-22T21:16:20.618Z,23.20
2018-08-22T21:18:49.001Z,23.20
2018-08-22T21:21:21.784Z,23.10
2018-08-22T21:23:50.274Z,23.10
2018-08-22T21:26:34.621Z,23.00
2018-08-22T21:29:03.127Z,23.00
2018-08-22T21:31:32.798Z,22.90
2018-08-22T21:34:06.857Z,22.90
2018-08-22T21:36:36.014Z,22.80
2018-08-22T21:39:10.355Z,22.80
2018-08-22T21:41:38.996Z,22.80
2018-08-22T21:44:07.505Z,22.80
2018-08-22T21:46:35.901Z,22.80
2018-08-22T21:49:12.637Z,22.70
2018-08-22T21:51:41.553Z,22.60
2018-08-22T21:54:11.000Z,22.60
2018-08-22T21:56:39.759Z,22.50
2018-08-22T21:59:08.934Z,22.40
2018-08-22T22:01:46.576Z,22.40
2018-08-22T22:04:19.882Z,22.40
2018-08-22T22:06:48.281Z,22.30
2018-08-22T22:09:16.645Z,22.40
2018-08-22T22:11:45.524Z,22.30
2018-08-22T22:14:47.906Z,22.30
2018-08-22T22:17:16.269Z,22.20
2018-08-22T22:19:44.991Z,22.20
2018-08-22T22:22:13.446Z,22.20
2018-08-22T22:24:50.765Z,22.20
2018-08-22T22:27:19.222Z,22.20
2018-08-22T22:29:47.883Z,22.00
2018-08-22T22:32:16.226Z,21.90
2018-08-22T22:34:45.085Z,21.80
2018-08-22T22:37:13.691Z,21.70
2018-08-22T22:39:43.482Z,21.70
2018-08-22T22:42:17.289Z,21.60
2018-08-22T22:44:48.188Z,21.50
2018-08-22T22:47:21.688Z,21.50
2018-08-22T22:49:50.903Z,21.40
2018-08-22T22:52:27.476Z,21.40
2018-08-22T22:54:57.135Z,21.30
2018-08-22T22:57:25.835Z,21.40
2018-08-22T22:59:54.533Z,21.30
2018-08-22T23:02:24.925Z,21.40
2018-08-22T23:04:54.169Z,21.20
2018-08-22T23:07:24.088Z,21.10
2018-08-22T23:09:56.732Z,21.10
2018-08-22T23:12:29.565Z,21.10
2018-08-22T23:14:58.048Z,21.00
2018-08-22T23:17:27.041Z,21.00
2018-08-22T23:20:16.196Z,21.00
2018-08-22T23:22:45.446Z,21.00
2018-08-22T23:25:13.805Z,20.90
2018-08-22T23:27:42.200Z,21.00
2018-08-22T23:30:10.686Z,20.90
2018-08-22T23:32:39.104Z,20.90
2018-08-22T23:35:21.365Z,20.80
2018-08-22T23:37:59.312Z,20.80
2018-08-22T23:40:28.917Z,20.70
2018-08-22T23:42:57.320Z,20.70
2018-08-22T23:45:25.687Z,20.70
2018-08-22T23:47:54.405Z,20.70
2018-08-22T23:50:22.877Z,20.60
2018-08-22T23:52:52.545Z,20.60
2018-08-22T23:55:21.980Z,20.50
2018-08-22T23:57:51.960Z,20.40
